Station History

Weather Underground - logo

Station Historical Data
Daily Summary for November 3, 2017 Units:  English    Metric   Both
« Previous Day
Next Day »
Daily Weekly Monthly Yearly Custom
  High: Low: Average:
Temperature: 73.9 °F 55.0 °F 62.1 °F
Dew Point: 54.0 °F 47.5 °F 51.4 °F
Humidity: 92 % 41 % 70 %
Wind Speed: 3.5 mph 0.0 mph 0.4 mph
Wind Gust: 3.5 mph - -
Wind:- - SW
Pressure: 30.10 in 29.99 in -
Precipitation: 0.00 in    
Historical Graphs
 
 
Tabular Data for November 3, 2017
Time Temperature Dew Point Pressure Wind Wind Speed Wind Gust Humidity Rainfall Rate (Hourly)
00:01 57.1 °F 53.3 °F 30.05 in Calm     87 % 0.00 in
00:06 57.0 °F 53.2 °F 30.06 in Calm     87 % 0.00 in
00:11 56.7 °F 52.9 °F 30.06 in Calm     87 % 0.00 in
00:16 56.6 °F 52.8 °F 30.05 in Calm     87 % 0.00 in
00:21 56.4 °F 52.6 °F 30.05 in Calm     87 % 0.00 in
00:26 56.3 °F 52.8 °F 30.05 in Calm     88 % 0.00 in
00:31 56.2 °F 52.7 °F 30.05 in Calm     88 % 0.00 in
00:36 56.2 °F 52.7 °F 30.05 in Calm     88 % 0.00 in
00:41 56.1 °F 52.9 °F 30.05 in Calm     89 % 0.00 in
00:46 56.0 °F 52.8 °F 30.05 in Calm     89 % 0.00 in
00:51 55.9 °F 52.7 °F 30.06 in Calm     89 % 0.00 in
00:56 55.9 °F 52.7 °F 30.06 in Calm     89 % 0.00 in
01:01 55.9 °F 52.7 °F 30.06 in Calm     89 % 0.00 in
01:07 56.0 °F 52.8 °F 30.06 in Calm     89 % 0.00 in
01:12 56.0 °F 52.5 °F 30.06 in Calm     88 % 0.00 in
01:17 56.1 °F 52.6 °F 30.06 in Calm     88 % 0.00 in
01:22 56.1 °F 52.6 °F 30.06 in Calm     88 % 0.00 in
01:27 56.2 °F 52.7 °F 30.06 in Calm     88 % 0.00 in
01:32 56.2 °F 52.7 °F 30.06 in Calm     88 % 0.00 in
01:37 56.3 °F 52.8 °F 30.06 in Calm     88 % 0.00 in
01:42 56.3 °F 52.5 °F 30.06 in Calm     87 % 0.00 in
01:47 56.4 °F 52.6 °F 30.06 in Calm     87 % 0.00 in
01:48 56.4 °F 52.6 °F 30.06 in Calm     87 % 0.00 in
01:53 56.5 °F 52.7 °F 30.06 in Calm     87 % 0.00 in
01:58 56.4 °F 52.6 °F 30.06 in Calm     87 % 0.00 in
02:03 56.3 °F 52.8 °F 30.07 in Calm     88 % 0.00 in
02:08 56.2 °F 52.7 °F 30.07 in Calm     88 % 0.00 in
02:13 56.1 °F 52.6 °F 30.07 in Calm     88 % 0.00 in
02:18 56.2 °F 52.7 °F 30.07 in Calm     88 % 0.00 in
02:23 56.2 °F 52.4 °F 30.07 in Calm     87 % 0.00 in
02:28 56.3 °F 52.5 °F 30.07 in Calm     87 % 0.00 in
02:38 56.5 °F 52.7 °F 30.07 in Calm     87 % 0.00 in
02:43 56.6 °F 52.8 °F 30.07 in Calm     87 % 0.00 in
02:48 56.6 °F 52.8 °F 30.07 in Calm     87 % 0.00 in
02:53 56.6 °F 52.5 °F 30.07 in Calm     86 % 0.00 in
02:58 56.8 °F 53.0 °F 30.07 in Calm     87 % 0.00 in
03:03 56.8 °F 52.7 °F 30.07 in Calm     86 % 0.00 in
03:08 56.8 °F 53.0 °F 30.07 in Calm     87 % 0.00 in
03:13 56.7 °F 52.9 °F 30.07 in Calm     87 % 0.00 in
03:18 56.3 °F 52.8 °F 30.07 in Calm     88 % 0.00 in
03:23 56.1 °F 52.6 °F 30.07 in Calm     88 % 0.00 in
03:28 55.9 °F 52.7 °F 30.07 in Calm     89 % 0.00 in
03:29 55.9 °F 52.7 °F 30.07 in Calm     89 % 0.00 in
03:34 55.7 °F 52.5 °F 30.06 in Calm     89 % 0.00 in
03:39 55.6 °F 52.4 °F 30.06 in Calm     89 % 0.00 in
03:42 55.5 °F 52.3 °F 30.06 in Calm     89 % 0.00 in
03:47 55.4 °F 52.2 °F 30.06 in Calm     89 % 0.00 in
03:52 55.4 °F 52.5 °F 30.06 in Calm     90 % 0.00 in
03:57 55.3 °F 52.4 °F 30.06 in Calm     90 % 0.00 in
04:02 55.3 °F 52.4 °F 30.06 in Calm     90 % 0.00 in
04:07 55.3 °F 52.4 °F 30.06 in Calm     90 % 0.00 in
04:12 55.3 °F 52.4 °F 30.06 in Calm     90 % 0.00 in
04:17 55.3 °F 52.7 °F 30.06 in Calm     91 % 0.00 in
04:22 55.3 °F 52.7 °F 30.06 in Calm     91 % 0.00 in
04:27 55.2 °F 52.6 °F 30.06 in Calm     91 % 0.00 in
04:32 55.2 °F 52.6 °F 30.06 in Calm     91 % 0.00 in
04:42 55.0 °F 52.4 °F 30.06 in Calm     91 % 0.00 in
04:47 55.0 °F 52.4 °F 30.07 in Calm     91 % 0.00 in
04:52 55.1 °F 52.8 °F 30.06 in Calm     92 % 0.00 in
04:53 55.1 °F 52.8 °F 30.06 in Calm     92 % 0.00 in
04:58 55.2 °F 52.6 °F 30.07 in Calm     91 % 0.00 in
05:03 55.2 °F 52.6 °F 30.07 in Calm     91 % 0.00 in
05:08 55.3 °F 53.0 °F 30.07 in Calm     92 % 0.00 in
05:13 55.4 °F 52.8 °F 30.07 in Calm     91 % 0.00 in
05:18 55.5 °F 52.9 °F 30.07 in Calm     91 % 0.00 in
05:23 55.5 °F 52.9 °F 30.07 in Calm     91 % 0.00 in
05:28 55.7 °F 53.4 °F 30.07 in Calm     92 % 0.00 in
05:33 55.7 °F 53.4 °F 30.07 in Calm     92 % 0.00 in
05:38 55.7 °F 53.1 °F 30.07 in Calm     91 % 0.00 in
05:44 55.6 °F 53.0 °F 30.07 in Calm     91 % 0.00 in
05:54 55.6 °F 53.0 °F 30.07 in Calm     91 % 0.00 in
05:59 55.5 °F 52.9 °F 30.07 in Calm     91 % 0.00 in
06:04 55.5 °F 52.9 °F 30.08 in Calm     91 % 0.00 in
06:09 55.6 °F 53.0 °F 30.08 in Calm     91 % 0.00 in
06:14 55.6 °F 53.0 °F 30.07 in Calm     91 % 0.00 in
06:19 55.6 °F 53.0 °F 30.08 in SE 1.2 mph 1.2 mph 91 % 0.00 in
06:24 55.5 °F 52.9 °F 30.08 in Calm     91 % 0.00 in
06:29 55.5 °F 52.9 °F 30.08 in Calm     91 % 0.00 in
06:34 55.3 °F 52.7 °F 30.08 in SE 1.2 mph 1.2 mph 91 % 0.00 in
06:39 55.3 °F 52.7 °F 30.08 in Calm     91 % 0.00 in
06:44 55.3 °F 52.4 °F 30.08 in Calm     90 % 0.00 in
06:49 55.3 °F 52.4 °F 30.08 in Calm     90 % 0.00 in
06:54 55.4 °F 52.2 °F 30.08 in SE 1.2 mph   89 % 0.00 in
06:59 55.5 °F 52.0 °F 30.08 in Calm     88 % 0.00 in
07:04 55.6 °F 51.8 °F 30.08 in Calm     87 % 0.00 in
07:09 55.7 °F 51.9 °F 30.08 in Calm     87 % 0.00 in
07:14 55.9 °F 51.8 °F 30.08 in East 1.2 mph   86 % 0.00 in
07:19 56.1 °F 52.0 °F 30.08 in East 1.2 mph   86 % 0.00 in
07:24 56.2 °F 51.7 °F 30.08 in East 1.2 mph 1.2 mph 85 % 0.00 in
07:29 56.5 °F 51.7 °F 30.08 in Calm     84 % 0.00 in
07:34 56.5 °F 51.4 °F 30.08 in Calm   0.1 mph 83 % 0.00 in
07:39 56.6 °F 51.5 °F 30.08 in East 1.2 mph 1.2 mph 83 % 0.00 in
07:44 56.7 °F 51.6 °F 30.08 in Calm     83 % 0.00 in
07:49 56.8 °F 51.4 °F 30.08 in Calm     82 % 0.00 in
07:54 56.9 °F 51.1 °F 30.08 in East 1.2 mph   81 % 0.00 in
07:59 57.1 °F 51.3 °F 30.09 in Calm     81 % 0.00 in
08:04 57.4 °F 51.3 °F 30.08 in Calm     80 % 0.00 in
08:09 57.5 °F 51.4 °F 30.08 in Calm     80 % 0.00 in
08:14 57.8 °F 51.7 °F 30.08 in Calm     80 % 0.00 in
08:19 57.9 °F 51.8 °F 30.08 in Calm     80 % 0.00 in
08:24 58.0 °F 51.5 °F 30.08 in Calm     79 % 0.00 in
08:29 58.3 °F 52.2 °F 30.08 in Calm     80 % 0.00 in
08:34 58.5 °F 52.0 °F 30.08 in Calm     79 % 0.00 in
08:39 58.9 °F 52.1 °F 30.08 in Calm     78 % 0.00 in
08:44 59.2 °F 51.6 °F 30.09 in Calm     76 % 0.00 in
08:49 59.7 °F 51.8 °F 30.09 in Calm     75 % 0.00 in
08:55 60.1 °F 52.9 °F 30.09 in Calm     77 % 0.00 in
09:00 60.3 °F 53.4 °F 30.09 in Calm     78 % 0.00 in
09:05 60.3 °F 53.4 °F 30.09 in Calm     78 % 0.00 in
09:10 60.3 °F 53.8 °F 30.10 in Calm     79 % 0.00 in
09:15 60.2 °F 53.7 °F 30.10 in Calm     79 % 0.00 in
09:20 60.1 °F 53.6 °F 30.10 in Calm     79 % 0.00 in
09:25 60.1 °F 53.9 °F 30.10 in Calm     80 % 0.00 in
09:30 60.0 °F 53.8 °F 30.10 in Calm     80 % 0.00 in
09:35 60.1 °F 53.9 °F 30.10 in Calm     80 % 0.00 in
09:40 60.8 °F 53.5 °F 30.10 in North 1.2 mph 1.2 mph 77 % 0.00 in
09:45 61.8 °F 53.4 °F 30.10 in Calm     74 % 0.00 in
09:50 62.7 °F 53.5 °F 30.10 in Calm     72 % 0.00 in
09:55 63.6 °F 54.0 °F 30.10 in Calm     71 % 0.00 in
10:00 64.2 °F 52.6 °F 30.10 in Calm     66 % 0.00 in
10:05 64.7 °F 50.9 °F 30.10 in Calm     61 % 0.00 in
10:10 65.3 °F 51.5 °F 30.10 in Calm     61 % 0.00 in
10:15 66.0 °F 51.3 °F 30.10 in Calm     59 % 0.00 in
10:20 66.7 °F 50.5 °F 30.10 in NE 1.2 mph   56 % 0.00 in
10:25 67.1 °F 50.9 °F 30.10 in Calm     56 % 0.00 in
10:30 67.5 °F 50.3 °F 30.10 in Calm     54 % 0.00 in
10:35 67.6 °F 50.4 °F 30.10 in WNW 1.2 mph 1.2 mph 54 % 0.00 in
10:40 67.5 °F 50.3 °F 30.10 in NW 2.3 mph 2.3 mph 54 % 0.00 in
10:45 67.7 °F 50.9 °F 30.10 in Calm     55 % 0.00 in
10:50 68.1 °F 51.3 °F 30.10 in NW 1.2 mph 1.2 mph 55 % 0.00 in
10:55 68.1 °F 50.3 °F 30.10 in North 1.2 mph 1.2 mph 53 % 0.00 in
11:00 68.1 °F 50.3 °F 30.10 in WNW 1.2 mph   53 % 0.00 in
11:05 68.5 °F 51.2 °F 30.10 in SSE 1.2 mph 1.2 mph 54 % 0.00 in
11:10 69.0 °F 50.1 °F 30.09 in East 1.2 mph 1.2 mph 51 % 0.00 in
11:15 69.0 °F 49.6 °F 30.09 in WNW 1.2 mph 1.2 mph 50 % 0.00 in
11:20 69.0 °F 50.1 °F 30.09 in NNW 3.5 mph 3.5 mph 51 % 0.00 in
11:25 69.4 °F 51.0 °F 30.09 in SW 1.2 mph 1.2 mph 52 % 0.00 in
11:30 69.9 °F 52.0 °F 30.09 in NW 1.2 mph   53 % 0.00 in
11:35 70.0 °F 51.0 °F 30.09 in WNW 1.2 mph   51 % 0.00 in
11:40 70.3 °F 50.8 °F 30.09 in Calm     50 % 0.00 in
11:45 70.7 °F 51.7 °F 30.08 in South 1.2 mph   51 % 0.00 in
11:51 71.1 °F 51.0 °F 30.08 in Calm     49 % 0.00 in
11:56 70.8 °F 49.6 °F 30.08 in NNW 1.2 mph 1.2 mph 47 % 0.00 in
12:01 70.1 °F 48.9 °F 30.07 in Calm     47 % 0.00 in
12:06 69.7 °F 50.2 °F 30.07 in NE 1.2 mph 1.2 mph 50 % 0.00 in
12:11 70.1 °F 49.5 °F 30.07 in West 1.2 mph 1.2 mph 48 % 0.00 in
12:16 70.3 °F 49.7 °F 30.07 in ENE 1.2 mph 1.2 mph 48 % 0.00 in
12:21 70.2 °F 49.0 °F 30.06 in NW 2.3 mph 2.3 mph 47 % 0.00 in
12:26 70.1 °F 49.5 °F 30.06 in Calm     48 % 0.00 in
12:31 70.8 °F 50.1 °F 30.05 in NW 1.2 mph 1.2 mph 48 % 0.00 in
12:36 71.3 °F 49.4 °F 30.05 in ESE 1.2 mph 1.2 mph 46 % 0.00 in
12:41 71.5 °F 49.0 °F 30.05 in ENE 1.2 mph 1.2 mph 45 % 0.00 in
12:46 71.3 °F 50.0 °F 30.04 in SSE 2.3 mph 2.3 mph 47 % 0.00 in
12:51 71.5 °F 49.6 °F 30.04 in Calm     46 % 0.00 in
12:56 72.1 °F 49.6 °F 30.04 in Calm     45 % 0.00 in
13:01 72.7 °F 50.7 °F 30.04 in NNE 1.2 mph 1.2 mph 46 % 0.00 in
13:06 72.8 °F 51.4 °F 30.03 in Calm     47 % 0.00 in
13:11 72.8 °F 49.6 °F 30.03 in NW 2.3 mph 2.3 mph 44 % 0.00 in
13:16 72.8 °F 50.8 °F 30.03 in East 1.2 mph 1.2 mph 46 % 0.00 in
13:21 73.1 °F 49.9 °F 30.02 in WNW 1.2 mph 1.2 mph 44 % 0.00 in
13:26 73.2 °F 50.6 °F 30.02 in WSW 1.2 mph 1.2 mph 45 % 0.00 in
13:31 72.9 °F 51.5 °F 30.02 in NNW 3.5 mph 3.5 mph 47 % 0.00 in
13:36 72.8 °F 50.8 °F 30.02 in NNW 1.2 mph 1.2 mph 46 % 0.00 in
13:41 72.8 °F 51.4 °F 30.02 in NW 1.2 mph   47 % 0.00 in
13:46 72.6 °F 50.6 °F 30.02 in WNW 1.2 mph 1.2 mph 46 % 0.00 in
13:51 72.5 °F 49.9 °F 30.02 in NW 2.3 mph   45 % 0.00 in
13:56 72.2 °F 49.7 °F 30.01 in NW 3.5 mph 3.5 mph 45 % 0.00 in
14:01 72.0 °F 50.7 °F 30.01 in Calm     47 % 0.00 in
14:06 72.6 °F 50.0 °F 30.01 in ESE 1.2 mph 1.2 mph 45 % 0.00 in
14:11 73.2 °F 49.4 °F 30.01 in NW 1.2 mph 1.2 mph 43 % 0.00 in
14:16 73.0 °F 50.4 °F 30.01 in SSW 2.3 mph 2.3 mph 45 % 0.00 in
14:21 73.5 °F 50.2 °F 30.01 in SSE 2.3 mph 2.3 mph 44 % 0.00 in
14:26 73.9 °F 50.6 °F 30.01 in NW 2.0 mph 2.0 mph 44 % 0.00 in
14:31 73.3 °F 48.2 °F 30.01 in NW 2.3 mph 2.3 mph 41 % 0.00 in
14:36 72.6 °F 47.5 °F 30.01 in WNW 1.2 mph 1.2 mph 41 % 0.00 in
14:41 71.8 °F 49.3 °F 30.01 in West 1.2 mph   45 % 0.00 in
14:46 71.4 °F 49.5 °F 30.01 in SW 2.3 mph   46 % 0.00 in
14:51 71.3 °F 48.9 °F 30.00 in WNW 1.0 mph 1.0 mph 45 % 0.00 in
14:56 71.2 °F 48.8 °F 30.00 in WSW 1.2 mph 1.2 mph 45 % 0.00 in
15:01 70.9 °F 49.7 °F 30.00 in West 2.3 mph   47 % 0.00 in
15:06 70.5 °F 48.7 °F 30.00 in Calm     46 % 0.00 in
15:12 70.3 °F 49.7 °F 30.00 in Calm   0.1 mph 48 % 0.00 in
15:17 70.5 °F 48.1 °F 30.00 in NE 1.2 mph 1.2 mph 45 % 0.00 in
15:22 70.5 °F 48.7 °F 30.00 in SE 1.2 mph   46 % 0.00 in
15:27 70.4 °F 50.3 °F 30.00 in NNW 1.2 mph 1.2 mph 49 % 0.00 in
15:32 70.5 °F 50.4 °F 30.00 in NE 2.3 mph 2.3 mph 49 % 0.00 in
15:37 70.4 °F 49.8 °F 30.00 in NW 2.3 mph 2.3 mph 48 % 0.00 in
15:42 70.2 °F 49.6 °F 30.00 in WNW 1.2 mph 1.2 mph 48 % 0.00 in
15:47 70.2 °F 50.1 °F 30.00 in West 1.2 mph 1.2 mph 49 % 0.00 in
15:52 70.2 °F 50.1 °F 29.99 in Calm     49 % 0.00 in
15:57 70.0 °F 49.4 °F 29.99 in NW 2.3 mph 2.3 mph 48 % 0.00 in
16:02 69.8 °F 49.2 °F 29.99 in WNW 2.3 mph 2.3 mph 48 % 0.00 in
16:04 69.8 °F 49.2 °F 29.99 in WSW 2.3 mph 2.3 mph 48 % 0.00 in
16:09 69.6 °F 50.1 °F 29.99 in NW 1.2 mph 1.2 mph 50 % 0.00 in
16:14 69.5 °F 50.6 °F 29.99 in West 1.2 mph 1.2 mph 51 % 0.00 in
16:19 69.3 °F 49.9 °F 29.99 in Calm     50 % 0.00 in
16:24 69.0 °F 49.6 °F 29.99 in NW 1.2 mph 1.2 mph 50 % 0.00 in
16:29 68.8 °F 50.5 °F 29.99 in Calm     52 % 0.00 in
16:34 68.8 °F 49.4 °F 29.99 in WSW 1.2 mph 1.2 mph 50 % 0.00 in
16:39 68.8 °F 49.4 °F 29.99 in Calm     50 % 0.00 in
16:44 68.8 °F 49.9 °F 29.99 in West 1.0 mph   51 % 0.00 in
16:49 68.7 °F 49.8 °F 29.99 in West 2.3 mph 2.3 mph 51 % 0.00 in
16:54 68.6 °F 50.3 °F 30.00 in Calm     52 % 0.00 in
16:59 68.3 °F 50.0 °F 29.99 in NW 1.2 mph   52 % 0.00 in
17:04 68.2 °F 49.9 °F 29.99 in Calm     52 % 0.00 in
17:09 68.0 °F 49.7 °F 29.99 in West 1.2 mph 1.2 mph 52 % 0.00 in
17:14 67.8 °F 50.5 °F 29.99 in Calm     54 % 0.00 in
17:19 67.5 °F 50.3 °F 29.99 in Calm     54 % 0.00 in
17:24 67.3 °F 49.6 °F 29.99 in Calm     53 % 0.00 in
17:29 67.1 °F 49.4 °F 29.99 in Calm     53 % 0.00 in
17:30 67.1 °F 49.9 °F 29.99 in Calm     54 % 0.00 in
17:35 66.9 °F 50.2 °F 29.99 in Calm   0.1 mph 55 % 0.00 in
17:40 66.7 °F 50.0 °F 29.99 in Calm     55 % 0.00 in
17:45 66.5 °F 50.3 °F 29.99 in Calm     56 % 0.00 in
17:50 66.3 °F 50.1 °F 29.99 in Calm     56 % 0.00 in
17:55 66.1 °F 50.4 °F 29.99 in Calm     57 % 0.00 in
18:00 65.9 °F 50.7 °F 29.99 in Calm     58 % 0.00 in
18:05 65.7 °F 50.5 °F 29.99 in Calm     58 % 0.00 in
18:10 65.5 °F 50.3 °F 29.99 in Calm     58 % 0.00 in
18:15 65.4 °F 50.2 °F 29.99 in Calm     58 % 0.00 in
18:20 65.2 °F 50.5 °F 30.00 in Calm     59 % 0.00 in
18:22 65.1 °F 50.4 °F 30.00 in Calm     59 % 0.00 in
18:27 64.9 °F 50.2 °F 30.00 in Calm     59 % 0.00 in
18:32 64.8 °F 50.1 °F 30.00 in Calm     59 % 0.00 in
18:37 64.7 °F 51.4 °F 30.00 in Calm     62 % 0.00 in
18:42 64.5 °F 51.2 °F 29.99 in Calm     62 % 0.00 in
18:47 64.2 °F 50.9 °F 30.00 in Calm     62 % 0.00 in
18:52 64.0 °F 51.1 °F 30.00 in Calm     63 % 0.00 in
18:57 63.7 °F 51.3 °F 30.00 in Calm     64 % 0.00 in
19:02 63.4 °F 51.4 °F 30.00 in Calm     65 % 0.00 in
19:07 63.2 °F 52.1 °F 30.00 in Calm     67 % 0.00 in
19:12 62.9 °F 51.8 °F 30.00 in Calm     67 % 0.00 in
19:17 62.6 °F 51.5 °F 30.00 in Calm     67 % 0.00 in
19:22 62.5 °F 51.8 °F 30.00 in Calm     68 % 0.00 in
19:27 62.3 °F 51.6 °F 30.00 in Calm     68 % 0.00 in
19:32 62.1 °F 51.4 °F 30.00 in Calm     68 % 0.00 in
19:37 61.9 °F 51.2 °F 30.00 in Calm     68 % 0.00 in
19:42 62.1 °F 50.6 °F 30.00 in Calm     66 % 0.00 in
19:47 62.3 °F 50.4 °F 30.00 in Calm     65 % 0.00 in
19:52 62.3 °F 50.8 °F 30.00 in Calm     66 % 0.00 in
19:57 62.2 °F 50.7 °F 30.00 in Calm     66 % 0.00 in
20:02 62.1 °F 51.8 °F 30.00 in Calm     69 % 0.00 in
20:07 61.6 °F 52.1 °F 30.00 in Calm     71 % 0.00 in
20:12 60.9 °F 51.8 °F 30.00 in Calm     72 % 0.00 in
20:18 60.3 °F 51.6 °F 30.00 in West 1.2 mph   73 % 0.00 in
20:21 60.0 °F 51.3 °F 30.00 in Calm     73 % 0.00 in
20:25 59.9 °F 50.8 °F 30.00 in Calm     72 % 0.00 in
20:27 60.0 °F 50.6 °F 30.00 in Calm     71 % 0.00 in
20:28 60.1 °F 50.7 °F 30.00 in Calm     71 % 0.00 in
20:31 60.1 °F 50.3 °F 30.00 in Calm     70 % 0.00 in
20:36 60.0 °F 50.6 °F 30.00 in Calm     71 % 0.00 in
20:41 59.9 °F 50.5 °F 30.00 in Calm     71 % 0.00 in
20:46 60.0 °F 50.6 °F 30.00 in Calm     71 % 0.00 in
20:51 60.3 °F 51.6 °F 30.00 in Calm     73 % 0.00 in
20:56 60.3 °F 52.0 °F 30.00 in Calm     74 % 0.00 in
21:01 60.1 °F 51.8 °F 30.00 in Calm     74 % 0.00 in
21:06 59.8 °F 51.9 °F 30.00 in Calm     75 % 0.00 in
21:11 59.6 °F 51.7 °F 30.00 in Calm     75 % 0.00 in
21:16 59.5 °F 51.9 °F 30.00 in Calm     76 % 0.00 in
21:21 59.5 °F 51.9 °F 30.00 in Calm     76 % 0.00 in
21:26 59.6 °F 51.7 °F 30.00 in Calm     75 % 0.00 in
21:31 59.6 °F 51.7 °F 30.00 in Calm     75 % 0.00 in
21:36 59.6 °F 51.7 °F 30.00 in Calm     75 % 0.00 in
21:42 59.6 °F 52.4 °F 30.01 in Calm     77 % 0.00 in
21:47 59.6 °F 52.0 °F 30.01 in Calm     76 % 0.00 in
21:52 59.6 °F 52.0 °F 30.01 in Calm     76 % 0.00 in
21:57 59.6 °F 51.7 °F 30.01 in Calm     75 % 0.00 in
22:02 59.7 °F 51.8 °F 30.01 in Calm     75 % 0.00 in
22:07 59.9 °F 52.3 °F 30.01 in Calm     76 % 0.00 in
22:12 59.8 °F 52.2 °F 30.01 in Calm     76 % 0.00 in
22:17 59.7 °F 52.5 °F 30.01 in Calm     77 % 0.00 in
22:22 59.6 °F 52.7 °F 30.01 in Calm     78 % 0.00 in
22:27 59.4 °F 52.5 °F 30.01 in Calm     78 % 0.00 in
22:32 59.0 °F 52.5 °F 30.01 in Calm     79 % 0.00 in
22:37 58.8 °F 52.3 °F 30.01 in Calm     79 % 0.00 in
22:42 58.7 °F 51.9 °F 30.01 in Calm     78 % 0.00 in
22:47 58.7 °F 51.9 °F 30.01 in Calm     78 % 0.00 in
22:52 58.6 °F 52.1 °F 30.02 in Calm     79 % 0.00 in
22:57 58.2 °F 51.7 °F 30.02 in Calm     79 % 0.00 in
23:02 57.8 °F 51.3 °F 30.02 in Calm     79 % 0.00 in
23:07 57.9 °F 51.4 °F 30.02 in Calm     79 % 0.00 in
23:12 58.0 °F 50.8 °F 30.02 in Calm     77 % 0.00 in
23:17 58.2 °F 50.7 °F 30.01 in Calm     76 % 0.00 in
23:22 58.2 °F 50.7 °F 30.01 in Calm     76 % 0.00 in
23:27 58.1 °F 50.9 °F 30.01 in Calm     77 % 0.00 in
23:32 57.9 °F 50.4 °F 30.02 in Calm     76 % 0.00 in
23:37 57.9 °F 50.7 °F 30.02 in Calm     77 % 0.00 in
23:42 57.7 °F 51.2 °F 30.01 in Calm     79 % 0.00 in
23:47 57.4 °F 50.9 °F 30.01 in Calm     79 % 0.00 in
23:52 57.3 °F 50.5 °F 30.01 in Calm     78 % 0.00 in
23:57 57.5 °F 50.3 °F 30.02 in West 1.2 mph   77 % 0.00 in
Park Place, Exeter, Tulare County, California, USA
Compliments of Weather Underground - 2.75 mb